createdAt,value
2023-01-03T00:02:08.921Z,96148.78
2023-01-03T00:04:36.072Z,96157.09
2023-01-03T00:07:02.545Z,96152.66
2023-01-03T00:09:28.969Z,96154.13
2023-01-03T00:12:13.454Z,96159.41
2023-01-03T00:14:42.514Z,96151.69
2023-01-03T00:17:10.275Z,96158.06
2023-01-03T00:19:40.496Z,96155.88
2023-01-03T00:22:08.633Z,96164.19
2023-01-03T00:24:35.134Z,96161.47
2023-01-03T00:27:01.593Z,96159.88
2023-01-03T00:29:28.294Z,96169.69
2023-01-03T00:31:55.416Z,96160.13
2023-01-03T00:34:21.864Z,96166.91
2023-01-03T00:36:48.961Z,96160.25
2023-01-03T00:39:15.467Z,96171.16
2023-01-03T00:41:42.001Z,96168.28
2023-01-03T00:44:08.754Z,96173.44
2023-01-03T00:46:35.771Z,96182.44
2023-01-03T00:49:02.943Z,96166.59
2023-01-03T00:51:32.081Z,96160.38
2023-01-03T00:54:00.152Z,96166.13
2023-01-03T00:56:29.315Z,96160.19
2023-01-03T00:58:56.169Z,96159.09
2023-01-03T01:01:24.865Z,96154.94
2023-01-03T01:03:55.416Z,96151.06
2023-01-03T01:06:24.066Z,96151.72
2023-01-03T01:08:53.109Z,96142.91
2023-01-03T01:11:22.676Z,96151.41
2023-01-03T01:13:50.119Z,96156.53
2023-01-03T01:16:19.709Z,96138.56
2023-01-03T01:18:48.668Z,96148.13
2023-01-03T01:21:17.607Z,96153.25
2023-01-03T01:23:45.096Z,96157.63
2023-01-03T01:26:15.424Z,96160.50
2023-01-03T01:28:42.670Z,96151.63
2023-01-03T01:31:13.121Z,96153.41
2023-01-03T01:33:39.545Z,96158.06
2023-01-03T01:36:06.787Z,96154.97
2023-01-03T01:38:33.369Z,96154.31
2023-01-03T01:40:59.826Z,96157.03
2023-01-03T01:43:44.830Z,96163.44
2023-01-03T01:46:22.469Z,96160.22
2023-01-03T01:48:52.597Z,96159.25
2023-01-03T01:51:22.569Z,96163.25
2023-01-03T01:53:53.030Z,96156.53
2023-01-03T01:56:23.463Z,96158.28
2023-01-03T01:58:52.506Z,96158.66
2023-01-03T02:01:22.111Z,96166.19
2023-01-03T02:03:54.777Z,96172.06
2023-01-03T02:06:22.797Z,96162.75
2023-01-03T02:08:49.597Z,96177.25
2023-01-03T02:11:27.245Z,96172.94
2023-01-03T02:14:03.700Z,96174.91
2023-01-03T02:16:47.627Z,96176.03
2023-01-03T02:19:51.720Z,96167.78
2023-01-03T02:22:39.220Z,96183.66
2023-01-03T02:25:44.557Z,96191.41
2023-01-03T02:28:34.394Z,96186.03
2023-01-03T02:31:08.118Z,96187.31
2023-01-03T02:33:40.841Z,96185.22
2023-01-03T02:36:16.939Z,96188.78
2023-01-03T02:38:49.813Z,96185.88
2023-01-03T02:41:27.588Z,96192.22
2023-01-03T02:43:59.953Z,96192.00
2023-01-03T02:46:34.508Z,96191.44
2023-01-03T02:49:06.773Z,96195.75
2023-01-03T02:51:37.791Z,96192.84
2023-01-03T02:54:08.442Z,96207.72
2023-01-03T02:56:39.955Z,96205.66
2023-01-03T02:59:14.653Z,96197.53
2023-01-03T03:01:44.383Z,96207.59
2023-01-03T03:04:13.287Z,96202.13
2023-01-03T03:06:46.987Z,96211.03
2023-01-03T03:09:13.371Z,96206.44
2023-01-03T03:12:06.092Z,96199.06
2023-01-03T03:14:36.726Z,96202.81
2023-01-03T03:17:08.890Z,96201.31
2023-01-03T03:19:54.840Z,96197.41
2023-01-03T03:22:48.223Z,96190.75
2023-01-03T03:25:19.642Z,96201.88
2023-01-03T03:28:06.897Z,96199.31
2023-01-03T03:30:37.837Z,96200.41
2023-01-03T03:33:06.816Z,96201.72
2023-01-03T03:35:41.129Z,96196.66
2023-01-03T03:38:12.260Z,96204.63
2023-01-03T03:41:10.531Z,96203.53
2023-01-03T03:44:02.869Z,96198.47
2023-01-03T03:46:38.655Z,96198.19
2023-01-03T03:49:30.407Z,96190.66
2023-01-03T03:52:00.443Z,96180.84
2023-01-03T03:54:29.336Z,96183.97
2023-01-03T03:57:01.459Z,96193.44
2023-01-03T03:59:32.759Z,96181.44
2023-01-03T04:02:02.864Z,96188.78
2023-01-03T04:04:34.649Z,96184.56
2023-01-03T04:07:01.845Z,96191.25
2023-01-03T04:09:28.823Z,96203.50
2023-01-03T04:11:55.268Z,96202.56
2023-01-03T04:14:21.716Z,96196.00
2023-01-03T04:16:48.156Z,96192.00
2023-01-03T04:19:14.701Z,96190.75
2023-01-03T04:21:41.823Z,96196.44
2023-01-03T04:24:08.625Z,96198.66
2023-01-03T04:26:35.066Z,96192.66
2023-01-03T04:29:01.472Z,96195.06
2023-01-03T04:31:28.055Z,96193.59
2023-01-03T04:33:54.930Z,96199.66
2023-01-03T04:36:21.382Z,96199.00
2023-01-03T04:38:48.479Z,96208.91
2023-01-03T04:41:15.902Z,96201.97
2023-01-03T04:44:00.341Z,96206.56
2023-01-03T04:46:26.987Z,96205.34
2023-01-03T04:48:53.529Z,96209.03
2023-01-03T04:51:21.266Z,96209.50
2023-01-03T04:53:48.393Z,96211.25
2023-01-03T04:56:14.946Z,96205.63
2023-01-03T04:58:41.434Z,96200.22
2023-01-03T05:01:07.990Z,96194.75
2023-01-03T05:03:35.140Z,96204.97
2023-01-03T05:06:02.816Z,96203.50
2023-01-03T05:08:29.311Z,96208.09
2023-01-03T05:10:56.526Z,96213.78
2023-01-03T05:13:23.288Z,96214.41
2023-01-03T05:15:49.820Z,96211.72
2023-01-03T05:18:16.303Z,96219.78
2023-01-03T05:21:01.433Z,96226.56
2023-01-03T05:23:48.289Z,96221.59
2023-01-03T05:26:17.662Z,96219.19
2023-01-03T05:28:47.333Z,96235.53
2023-01-03T05:31:13.743Z,96230.25
2023-01-03T05:33:40.858Z,96227.25
2023-01-03T05:36:08.892Z,96236.38
2023-01-03T05:38:35.836Z,96241.88
2023-01-03T05:41:02.388Z,96247.00
2023-01-03T05:43:29.467Z,96250.34
2023-01-03T05:45:55.902Z,96249.78
2023-01-03T05:48:22.526Z,96257.88
2023-01-03T05:50:50.071Z,96278.38
2023-01-03T05:53:17.034Z,96269.34
2023-01-03T05:55:43.417Z,96258.31
2023-01-03T05:58:11.178Z,96251.59
2023-01-03T06:00:38.330Z,96245.78
2023-01-03T06:03:04.882Z,96252.88
2023-01-03T06:05:31.389Z,96248.22
2023-01-03T06:07:59.981Z,96249.56
2023-01-03T06:10:26.756Z,96255.75
2023-01-03T06:12:53.224Z,96251.28
2023-01-03T06:15:19.893Z,96256.09
2023-01-03T06:17:58.381Z,96262.06
2023-01-03T06:20:25.607Z,96259.28
2023-01-03T06:22:52.701Z,96253.56
2023-01-03T06:25:19.187Z,96265.38
2023-01-03T06:27:45.991Z,96268.81
2023-01-03T06:30:12.826Z,96273.13
2023-01-03T06:32:39.337Z,96269.41
2023-01-03T06:35:07.251Z,96267.84
2023-01-03T06:37:33.744Z,96274.94
2023-01-03T06:40:00.279Z,96276.47
2023-01-03T06:42:50.201Z,96273.78
2023-01-03T06:45:35.082Z,96278.16
2023-01-03T06:48:22.449Z,96268.47
2023-01-03T06:51:07.908Z,96279.72
2023-01-03T06:53:36.705Z,96280.16
2023-01-03T06:56:04.193Z,96282.81
2023-01-03T06:58:30.998Z,96288.50
2023-01-03T07:01:01.824Z,96288.66
2023-01-03T07:03:28.416Z,96291.94
2023-01-03T07:05:55.692Z,96291.25
2023-01-03T07:08:22.321Z,96300.88
2023-01-03T07:10:48.762Z,96302.88
2023-01-03T07:13:33.187Z,96299.81
2023-01-03T07:15:59.682Z,96313.31
2023-01-03T07:18:26.186Z,96309.53
2023-01-03T07:20:52.980Z,96313.63
2023-01-03T07:23:20.237Z,96308.06
2023-01-03T07:25:47.000Z,96311.06
2023-01-03T07:28:14.760Z,96310.84
2023-01-03T07:30:42.819Z,96327.19
2023-01-03T07:33:10.804Z,96329.50
2023-01-03T07:35:37.380Z,96322.56
2023-01-03T07:38:04.815Z,96324.88
2023-01-03T07:40:32.361Z,96325.75
2023-01-03T07:43:17.450Z,96326.03
2023-01-03T07:45:45.163Z,96320.09
2023-01-03T07:48:13.001Z,96324.06
2023-01-03T07:50:40.106Z,96320.28
2023-01-03T07:53:07.492Z,96337.81
2023-01-03T07:55:36.235Z,96342.72
2023-01-03T07:58:03.041Z,96337.81
2023-01-03T08:00:29.424Z,96337.31
2023-01-03T08:02:56.229Z,96341.97
2023-01-03T08:05:22.726Z,96345.19
2023-01-03T08:07:50.024Z,96342.91
2023-01-03T08:10:35.139Z,96342.50
2023-01-03T08:13:17.300Z,96349.25
2023-01-03T08:15:44.378Z,96357.00
2023-01-03T08:18:11.269Z,96352.19
2023-01-03T08:20:37.685Z,96367.00
2023-01-03T08:23:04.123Z,96368.44
2023-01-03T08:25:30.589Z,96372.03
2023-01-03T08:27:57.562Z,96376.19
2023-01-03T08:30:24.862Z,96376.06
2023-01-03T08:32:53.604Z,96361.75
2023-01-03T08:35:21.668Z,96390.22
2023-01-03T08:37:49.405Z,96396.25
2023-01-03T08:40:17.845Z,96400.72
2023-01-03T08:42:46.331Z,96401.53
2023-01-03T08:45:16.890Z,96410.06
2023-01-03T08:47:45.372Z,96413.44
2023-01-03T08:50:12.494Z,96423.22
2023-01-03T08:52:38.885Z,96419.84
2023-01-03T08:55:05.828Z,96427.84
2023-01-03T08:57:32.217Z,96433.31
2023-01-03T08:59:58.598Z,96427.84
2023-01-03T09:02:25.164Z,96420.47
2023-01-03T09:04:52.350Z,96422.38
2023-01-03T09:07:18.748Z,96426.78
2023-01-03T09:09:45.115Z,96441.78
2023-01-03T09:12:11.501Z,96439.22
2023-01-03T09:14:37.871Z,96428.53
2023-01-03T09:17:04.273Z,96435.22
2023-01-03T09:19:30.726Z,96433.13
2023-01-03T09:21:57.808Z,96439.31
2023-01-03T09:24:24.291Z,96434.91
2023-01-03T09:26:54.368Z,96442.44
2023-01-03T09:29:21.277Z,96431.94
2023-01-03T09:31:47.910Z,96443.63
2023-01-03T09:34:14.420Z,96443.94
2023-01-03T09:36:40.877Z,96459.63
2023-01-03T09:39:07.950Z,96449.06
2023-01-03T09:41:35.179Z,96450.16
2023-01-03T09:44:04.142Z,96453.88
2023-01-03T09:46:31.855Z,96452.75
2023-01-03T09:49:00.125Z,96450.22
2023-01-03T09:51:47.367Z,96445.44
2023-01-03T09:54:35.725Z,96440.78
2023-01-03T09:57:26.315Z,96450.44
2023-01-03T10:00:13.162Z,96449.25
2023-01-03T10:03:16.584Z,96447.06
2023-01-03T10:05:52.711Z,96446.84
2023-01-03T10:08:34.737Z,96444.16
2023-01-03T10:11:07.119Z,96432.63
2023-01-03T10:13:54.795Z,96428.59
2023-01-03T10:16:33.089Z,96427.41
2023-01-03T10:19:26.903Z,96430.38
2023-01-03T10:22:03.418Z,96425.59
2023-01-03T10:24:31.708Z,96418.78
2023-01-03T10:27:07.063Z,96410.59
2023-01-03T10:29:34.493Z,96411.97
2023-01-03T10:32:23.136Z,96406.59
2023-01-03T10:35:01.982Z,96414.25
2023-01-03T10:37:28.842Z,96405.50
2023-01-03T10:40:02.697Z,96389.53
2023-01-03T10:42:32.363Z,96398.66
2023-01-03T10:45:01.151Z,96397.78
2023-01-03T10:47:27.757Z,96400.25
2023-01-03T10:49:59.003Z,96400.97
2023-01-03T10:52:30.856Z,96402.88
2023-01-03T10:55:00.677Z,96401.81
2023-01-03T10:57:40.900Z,96397.13
2023-01-03T11:00:25.744Z,96396.31
2023-01-03T11:02:53.369Z,96403.41
2023-01-03T11:05:21.837Z,96400.19
2023-01-03T11:07:54.321Z,96399.00
2023-01-03T11:10:22.163Z,96392.94
2023-01-03T11:12:49.298Z,96391.84
2023-01-03T11:15:18.135Z,96382.59
2023-01-03T11:17:55.818Z,96382.22
2023-01-03T11:20:36.973Z,96382.38
2023-01-03T11:23:11.690Z,96383.94
2023-01-03T11:25:47.548Z,96392.06
2023-01-03T11:28:42.227Z,96385.03
2023-01-03T11:31:18.872Z,96388.88
2023-01-03T11:33:57.568Z,96387.69
2023-01-03T11:36:37.769Z,96388.34
2023-01-03T11:39:26.320Z,96394.28
2023-01-03T11:42:10.910Z,96388.66
2023-01-03T11:45:07.156Z,96384.06
2023-01-03T11:47:46.199Z,96376.47
2023-01-03T11:50:27.325Z,96376.94
2023-01-03T11:53:01.417Z,96369.47
2023-01-03T11:55:45.768Z,96370.34
2023-01-03T11:58:42.182Z,96368.03
2023-01-03T12:01:19.323Z,96366.22
2023-01-03T12:04:04.695Z,96375.19
2023-01-03T12:06:38.270Z,96365.44
2023-01-03T12:09:15.058Z,96373.06
2023-01-03T12:12:00.544Z,96366.91
2023-01-03T12:14:34.066Z,96366.44
2023-01-03T12:17:05.487Z,96366.22
2023-01-03T12:19:37.994Z,96365.59
2023-01-03T12:22:12.200Z,96350.56
2023-01-03T12:24:44.512Z,96363.22
2023-01-03T12:27:17.631Z,96370.88
2023-01-03T12:29:51.739Z,96367.72
2023-01-03T12:32:22.999Z,96373.75
2023-01-03T12:35:03.984Z,96358.91
2023-01-03T12:37:35.218Z,96358.41
2023-01-03T12:40:04.907Z,96362.19
2023-01-03T12:42:36.920Z,96361.59
2023-01-03T12:45:29.643Z,96366.34
2023-01-03T12:48:07.011Z,96355.56
2023-01-03T12:50:40.095Z,96361.69
2023-01-03T12:53:18.010Z,96354.97
2023-01-03T12:55:57.788Z,96353.94
2023-01-03T12:58:39.836Z,96351.56
2023-01-03T13:01:11.499Z,96356.63
2023-01-03T13:03:41.675Z,96357.19
2023-01-03T13:06:17.042Z,96355.94
2023-01-03T13:08:48.324Z,96362.19
2023-01-03T13:11:18.977Z,96357.53
2023-01-03T13:13:51.791Z,96356.81
2023-01-03T13:16:40.327Z,96357.09
2023-01-03T13:19:51.020Z,96355.84
2023-01-03T13:22:45.907Z,96350.59
2023-01-03T13:25:37.891Z,96358.28
2023-01-03T13:28:08.436Z,96358.97
2023-01-03T13:30:37.468Z,96356.22
2023-01-03T13:33:16.192Z,96355.84
2023-01-03T13:35:57.994Z,96346.44
2023-01-03T13:38:29.064Z,96356.63
2023-01-03T13:43:49.415Z,96363.78
2023-01-03T13:46:22.347Z,96355.41
2023-01-03T13:48:57.225Z,96360.50
2023-01-03T13:51:47.798Z,96362.47
2023-01-03T13:55:04.808Z,96364.72
2023-01-03T13:57:52.753Z,96360.81
2023-01-03T14:00:22.115Z,96355.56
2023-01-03T14:03:13.058Z,96368.88
2023-01-03T14:06:15.230Z,96365.88
2023-01-03T14:09:05.558Z,96372.44
2023-01-03T14:11:50.135Z,96373.09
2023-01-03T14:14:21.990Z,96374.84
2023-01-03T14:16:50.608Z,96383.97
2023-01-03T14:19:21.298Z,96369.53
2023-01-03T14:21:52.837Z,96375.00
2023-01-03T14:24:24.215Z,96375.34
2023-01-03T14:26:51.063Z,96369.94
2023-01-03T14:29:21.377Z,96378.75
2023-01-03T14:31:50.713Z,96374.38
2023-01-03T14:34:26.818Z,96371.03
2023-01-03T14:37:00.057Z,96377.72
2023-01-03T14:41:59.216Z,96381.13
2023-01-03T14:44:28.234Z,96378.59
2023-01-03T14:46:57.317Z,96381.13
2023-01-03T14:49:33.466Z,96373.84
2023-01-03T14:52:04.734Z,96379.25
2023-01-03T14:54:31.411Z,96379.66
2023-01-03T14:56:59.444Z,96385.44
2023-01-03T14:59:27.112Z,96387.19
2023-01-03T15:01:53.800Z,96390.97
2023-01-03T15:04:24.280Z,96392.88
2023-01-03T15:07:04.846Z,96397.97
2023-01-03T15:09:34.950Z,96399.53
2023-01-03T15:12:04.077Z,96393.81
2023-01-03T15:14:33.008Z,96405.00
2023-01-03T15:17:06.321Z,96400.47
2023-01-03T15:19:34.178Z,96405.59
2023-01-03T15:22:08.484Z,96402.38
2023-01-03T15:24:43.325Z,96399.53
2023-01-03T15:27:32.719Z,96406.03
2023-01-03T15:30:16.601Z,96410.56
2023-01-03T15:32:49.512Z,96403.38
2023-01-03T15:35:21.315Z,96411.50
2023-01-03T15:37:52.543Z,96416.31
2023-01-03T15:40:18.913Z,96416.09
2023-01-03T15:43:04.477Z,96416.38
2023-01-03T15:45:37.135Z,96416.88
2023-01-03T15:48:11.523Z,96403.59
2023-01-03T15:50:46.443Z,96416.66
2023-01-03T15:53:21.914Z,96413.44
2023-01-03T15:55:49.592Z,96416.66
2023-01-03T15:58:16.078Z,96413.72
2023-01-03T16:00:43.203Z,96414.81
2023-01-03T16:03:15.640Z,96417.53
2023-01-03T16:05:42.434Z,96414.34
2023-01-03T16:08:21.013Z,96413.66
2023-01-03T16:10:48.247Z,96421.53
2023-01-03T16:13:15.158Z,96423.59
2023-01-03T16:15:43.101Z,96420.28
2023-01-03T16:18:14.707Z,96414.91
2023-01-03T16:20:41.328Z,96411.13
2023-01-03T16:23:19.804Z,96417.16
2023-01-03T16:25:46.350Z,96423.06
2023-01-03T16:28:12.754Z,96421.09
2023-01-03T16:30:39.199Z,96410.47
2023-01-03T16:33:05.798Z,96420.28
2023-01-03T16:35:32.916Z,96423.41
2023-01-03T16:37:59.318Z,96413.97
2023-01-03T16:40:25.771Z,96417.19
2023-01-03T16:42:52.186Z,96427.91
2023-01-03T16:45:18.725Z,96427.66
2023-01-03T16:47:45.644Z,96425.97
2023-01-03T16:50:14.697Z,96435.28
2023-01-03T16:52:45.980Z,96435.41
2023-01-03T16:55:17.211Z,96426.47
2023-01-03T16:57:46.289Z,96425.56
2023-01-03T17:00:19.057Z,96406.28
2023-01-03T17:02:46.075Z,96415.44
2023-01-03T17:05:12.889Z,96422.16
2023-01-03T17:07:41.784Z,96414.50
2023-01-03T17:10:23.388Z,96417.78
2023-01-03T17:12:49.970Z,96417.91
2023-01-03T17:15:16.638Z,96417.91
2023-01-03T17:17:43.527Z,96425.28
2023-01-03T17:20:14.098Z,96421.16
2023-01-03T17:22:43.414Z,96428.75
2023-01-03T17:25:11.032Z,96415.78
2023-01-03T17:27:37.691Z,96428.75
2023-01-03T17:30:06.575Z,96439.63
2023-01-03T17:32:33.435Z,96428.75
2023-01-03T17:35:00.050Z,96450.31
2023-01-03T17:37:26.710Z,96443.22
2023-01-03T17:39:56.393Z,96453.53
2023-01-03T17:42:24.069Z,96453.53
2023-01-03T17:45:09.117Z,96455.94
2023-01-03T17:47:57.524Z,96447.47
2023-01-03T17:50:24.356Z,96449.63
2023-01-03T17:52:55.611Z,96447.38
2023-01-03T17:55:27.039Z,96452.19
2023-01-03T17:57:54.244Z,96447.75
2023-01-03T18:00:26.365Z,96453.28
2023-01-03T18:02:53.877Z,96433.44
2023-01-03T18:05:27.539Z,96439.31
2023-01-03T18:07:55.532Z,96443.22
2023-01-03T18:10:31.507Z,96441.88
2023-01-03T18:12:58.418Z,96438.78
2023-01-03T18:15:27.807Z,96446.28
2023-01-03T18:17:54.701Z,96435.31
2023-01-03T18:20:21.834Z,96424.31
2023-01-03T18:22:51.923Z,96442.00
2023-01-03T18:25:22.700Z,96449.22
2023-01-03T18:27:54.180Z,96459.66
2023-01-03T18:30:22.341Z,96457.75
2023-01-03T18:32:49.259Z,96453.47
2023-01-03T18:35:22.304Z,96463.00
2023-01-03T18:37:54.966Z,96461.09
2023-01-03T18:40:26.761Z,96464.47
2023-01-03T18:43:10.484Z,96462.22
2023-01-03T18:45:38.621Z,96445.75
2023-01-03T18:48:13.511Z,96452.56
2023-01-03T18:50:40.392Z,96454.81
2023-01-03T18:53:10.257Z,96443.72
2023-01-03T18:55:36.839Z,96465.00
2023-01-03T18:58:11.126Z,96460.88
2023-01-03T19:00:37.980Z,96465.97
2023-01-03T19:03:20.650Z,96461.03
2023-01-03T19:05:47.512Z,96458.88
2023-01-03T19:08:15.838Z,96459.13
2023-01-03T19:10:42.572Z,96454.72
2023-01-03T19:13:22.984Z,96458.91
2023-01-03T19:15:49.622Z,96456.88
2023-01-03T19:18:16.800Z,96448.59
2023-01-03T19:20:43.435Z,96451.53
2023-01-03T19:23:18.741Z,96449.25
2023-01-03T19:25:47.956Z,96445.66
2023-01-03T19:28:21.268Z,96448.59
2023-01-03T19:30:47.954Z,96438.81
2023-01-03T19:33:15.769Z,96425.56
2023-01-03T19:35:43.046Z,96431.03
2023-01-03T19:38:09.576Z,96425.28
2023-01-03T19:40:38.888Z,96436.94
2023-01-03T19:43:06.060Z,96419.25
2023-01-03T19:45:35.276Z,96431.47
2023-01-03T19:48:04.377Z,96416.56
2023-01-03T19:50:32.653Z,96421.00
2023-01-03T19:53:00.914Z,96428.34
2023-01-03T19:55:29.742Z,96421.25
2023-01-03T19:57:57.853Z,96419.91
2023-01-03T20:00:28.184Z,96423.38
2023-01-03T20:02:58.109Z,96428.50
2023-01-03T20:05:29.506Z,96430.38
2023-01-03T20:07:56.006Z,96425.81
2023-01-03T20:10:24.143Z,96422.72
2023-01-03T20:12:53.257Z,96416.56
2023-01-03T20:15:22.993Z,96417.50
2023-01-03T20:17:49.630Z,96404.53
2023-01-03T20:20:17.204Z,96413.91
2023-01-03T20:25:33.122Z,96418.84
2023-01-03T20:28:01.019Z,96412.28
2023-01-03T20:30:29.480Z,96418.13
2023-01-03T20:32:56.582Z,96423.09
2023-01-03T20:38:16.003Z,96428.19
2023-01-03T20:40:42.416Z,96425.25
2023-01-03T20:43:13.119Z,96415.72
2023-01-03T20:45:40.106Z,96426.03
2023-01-03T20:48:15.889Z,96426.59
2023-01-03T20:50:46.933Z,96433.38
2023-01-03T20:53:16.592Z,96427.50
2023-01-03T20:55:43.380Z,96438.50
2023-01-03T20:58:13.087Z,96436.63
2023-01-03T21:00:39.623Z,96436.25
2023-01-03T21:03:08.090Z,96433.69
2023-01-03T21:05:35.202Z,96435.47
2023-01-03T21:08:20.541Z,96435.47
2023-01-03T21:10:52.098Z,96433.31
2023-01-03T21:13:19.509Z,96438.25
2023-01-03T21:15:47.180Z,96442.78
2023-01-03T21:18:15.906Z,96449.88
2023-01-03T21:20:42.638Z,96442.78
2023-01-03T21:23:16.287Z,96440.66
2023-01-03T21:25:43.216Z,96441.88
2023-01-03T21:28:10.723Z,96435.28
2023-01-03T21:30:41.191Z,96428.47
2023-01-03T21:33:14.083Z,96428.50
2023-01-03T21:35:40.546Z,96437.31
2023-01-03T21:38:09.447Z,96437.06
2023-01-03T21:40:36.786Z,96440.28
2023-01-03T21:43:04.918Z,96440.94
2023-01-03T21:45:33.549Z,96426.34
2023-01-03T21:48:01.412Z,96421.13
2023-01-03T21:50:28.872Z,96420.56
2023-01-03T21:52:56.053Z,96429.56
2023-01-03T21:55:23.427Z,96432.50
2023-01-03T21:57:51.150Z,96416.16
2023-01-03T22:00:19.024Z,96427.41
2023-01-03T22:03:04.665Z,96439.88
2023-01-03T22:05:31.688Z,96424.19
2023-01-03T22:07:59.726Z,96426.19
2023-01-03T22:10:26.285Z,96419.63
2023-01-03T22:12:55.983Z,96414.25
2023-01-03T22:15:24.164Z,96419.22
2023-01-03T22:17:51.608Z,96416.28
2023-01-03T22:20:20.371Z,96427.78
2023-01-03T22:22:46.983Z,96428.84
2023-01-03T22:25:16.164Z,96426.41
2023-01-03T22:27:43.302Z,96424.50
2023-01-03T22:30:13.503Z,96427.06
2023-01-03T22:32:40.958Z,96423.28
2023-01-03T22:35:08.948Z,96408.91
2023-01-03T22:37:35.496Z,96415.47
2023-01-03T22:40:02.006Z,96413.06
2023-01-03T22:42:28.552Z,96405.97
2023-01-03T22:44:56.084Z,96413.44
2023-01-03T22:47:23.380Z,96409.16
2023-01-03T22:49:50.298Z,96412.94
2023-01-03T22:52:17.065Z,96411.56
2023-01-03T22:54:43.694Z,96413.31
2023-01-03T22:57:11.320Z,96412.75
2023-01-03T22:59:37.898Z,96401.22
2023-01-03T23:02:04.468Z,96405.88
2023-01-03T23:04:32.097Z,96403.06
2023-01-03T23:06:58.603Z,96397.47
2023-01-03T23:09:25.178Z,96393.84
2023-01-03T23:12:09.872Z,96398.38
2023-01-03T23:14:36.336Z,96395.44
2023-01-03T23:17:17.662Z,96392.09
2023-01-03T23:19:44.854Z,96390.06
2023-01-03T23:22:11.415Z,96387.16
2023-01-03T23:24:37.879Z,96379.00
2023-01-03T23:27:04.339Z,96383.69
2023-01-03T23:29:30.720Z,96376.13
2023-01-03T23:31:57.120Z,96379.88
2023-01-03T23:34:23.545Z,96376.63
2023-01-03T23:36:50.651Z,96380.34
2023-01-03T23:39:18.503Z,96378.50
2023-01-03T23:41:45.654Z,96368.44
2023-01-03T23:44:13.263Z,96378.75
2023-01-03T23:46:39.675Z,96379.09
2023-01-03T23:49:06.061Z,96387.41
2023-01-03T23:51:32.468Z,96386.97
2023-01-03T23:53:59.751Z,96383.16
2023-01-03T23:56:26.285Z,96391.41
2023-01-03T23:58:52.808Z,96387.88
